createdAt,value
2017-08-22T00:02:01.082Z,5.50
2017-08-22T00:04:30.497Z,5.67
2017-08-22T00:06:58.814Z,4.83
2017-08-22T00:09:27.083Z,5.90
2017-08-22T00:11:55.359Z,5.30
2017-08-22T00:14:23.719Z,5.53
2017-08-22T00:16:51.982Z,5.23
2017-08-22T00:19:21.391Z,6.80
2017-08-22T00:21:49.731Z,6.07
2017-08-22T00:24:18.402Z,5.90
2017-08-22T00:26:48.194Z,6.40
2017-08-22T00:29:16.638Z,5.37
2017-08-22T00:31:45.690Z,6.17
2017-08-22T00:34:14.749Z,6.63
2017-08-22T00:36:43.855Z,6.00
2017-08-22T00:39:12.142Z,6.20
2017-08-22T00:41:40.822Z,6.93
2017-08-22T00:44:10.498Z,6.23
2017-08-22T00:46:40.151Z,6.30
2017-08-22T00:49:09.801Z,6.50
2017-08-22T00:51:38.394Z,7.00
2017-08-22T00:54:06.667Z,6.00
2017-08-22T00:56:34.971Z,5.60
2017-08-22T00:59:03.291Z,6.00
2017-08-22T01:01:31.571Z,7.47
2017-08-22T01:03:59.879Z,6.50
2017-08-22T01:06:28.191Z,6.03
2017-08-22T01:08:57.227Z,5.90
2017-08-22T01:11:26.307Z,6.37
2017-08-22T01:13:54.625Z,5.70
2017-08-22T01:16:24.958Z,7.43
2017-08-22T01:18:53.903Z,6.90
2017-08-22T01:21:22.222Z,6.80
2017-08-22T01:23:50.495Z,6.40
2017-08-22T01:26:18.807Z,6.23
2017-08-22T01:28:48.298Z,6.60
2017-08-22T01:31:17.923Z,7.40
2017-08-22T01:33:46.531Z,6.13
2017-08-22T01:36:14.857Z,6.33
2017-08-22T01:38:43.139Z,6.53
2017-08-22T01:41:12.975Z,6.60
2017-08-22T01:43:42.051Z,6.00
2017-08-22T01:46:11.464Z,7.00
2017-08-22T01:48:41.114Z,7.53
2017-08-22T01:51:09.302Z,6.53
2017-08-22T01:53:38.924Z,6.43
2017-08-22T01:56:07.494Z,6.60
2017-08-22T01:58:37.154Z,6.70
2017-08-22T02:01:05.694Z,7.87
2017-08-22T02:03:34.006Z,7.60
2017-08-22T02:06:02.323Z,7.37
2017-08-22T02:08:32.113Z,6.53
2017-08-22T02:11:00.420Z,7.40
2017-08-22T02:13:28.731Z,6.47
2017-08-22T02:15:57.003Z,7.03
2017-08-22T02:18:25.347Z,6.90
2017-08-22T02:20:53.656Z,6.80
2017-08-22T02:23:23.066Z,7.80
2017-08-22T02:25:51.343Z,7.20
2017-08-22T02:28:19.671Z,8.03
2017-08-22T02:30:47.953Z,9.20
2017-08-22T02:33:17.004Z,7.83
2017-08-22T02:35:45.343Z,8.20
2017-08-22T02:38:13.620Z,6.83
2017-08-22T02:40:43.252Z,7.47
2017-08-22T02:43:11.567Z,7.67
2017-08-22T02:45:41.187Z,7.67
2017-08-22T02:48:09.723Z,7.70
2017-08-22T02:50:38.066Z,8.67
2017-08-22T02:53:06.353Z,8.43
2017-08-22T02:55:34.626Z,7.87
2017-08-22T02:58:04.102Z,7.70
2017-08-22T03:00:32.379Z,7.23
2017-08-22T03:03:00.669Z,8.70
2017-08-22T03:05:28.998Z,9.00
2017-08-22T03:07:57.276Z,7.37
2017-08-22T03:10:25.556Z,7.80
2017-08-22T03:12:55.031Z,7.17
2017-08-22T03:15:23.698Z,8.37
2017-08-22T03:17:51.975Z,7.80
2017-08-22T03:20:23.702Z,8.50
2017-08-22T03:22:53.106Z,8.43
2017-08-22T03:25:21.387Z,9.00
2017-08-22T03:27:49.731Z,8.70
2017-08-22T03:30:18.049Z,7.30
2017-08-22T03:32:47.894Z,7.20
2017-08-22T03:35:16.250Z,8.90
2017-08-22T03:37:44.545Z,8.50
2017-08-22T03:40:12.831Z,8.70
2017-08-22T03:42:41.539Z,7.53
2017-08-22T03:45:10.584Z,7.90
2017-08-22T03:47:39.254Z,7.60
2017-08-22T03:50:07.591Z,7.50
2017-08-22T03:52:37.379Z,8.73
2017-08-22T03:55:05.651Z,7.20
2017-08-22T03:57:34.267Z,7.30
2017-08-22T04:00:02.960Z,7.73
2017-08-22T04:02:32.378Z,7.40
2017-08-22T04:05:02.123Z,8.33
2017-08-22T04:07:31.445Z,8.60
2017-08-22T04:09:59.711Z,7.07
2017-08-22T04:12:28.046Z,8.07
2017-08-22T04:14:56.310Z,7.13
2017-08-22T04:17:24.590Z,8.23
2017-08-22T04:19:52.935Z,6.83
2017-08-22T04:22:22.026Z,8.20
2017-08-22T04:24:50.303Z,9.83
2017-08-22T04:27:18.647Z,8.30
2017-08-22T04:29:46.946Z,8.47
2017-08-22T04:32:15.231Z,7.77
2017-08-22T04:34:44.523Z,8.50
2017-08-22T04:37:13.597Z,7.20
2017-08-22T04:39:42.673Z,7.43
2017-08-22T04:42:12.132Z,6.60
2017-08-22T04:44:40.811Z,7.77
2017-08-22T04:47:09.087Z,7.40
2017-08-22T04:49:37.431Z,8.03
2017-08-22T04:52:05.710Z,7.87
2017-08-22T04:54:34.006Z,8.50
2017-08-22T04:57:03.499Z,7.70
2017-08-22T04:59:31.808Z,8.57
2017-08-22T05:02:00.087Z,7.30
2017-08-22T05:04:28.410Z,8.37
2017-08-22T05:06:56.687Z,6.87
2017-08-22T05:09:24.967Z,7.00
2017-08-22T05:11:53.303Z,7.20
2017-08-22T05:14:21.648Z,8.10
2017-08-22T05:16:51.459Z,8.43
2017-08-22T05:19:20.595Z,7.80
2017-08-22T05:21:49.633Z,7.03
2017-08-22T05:24:18.201Z,7.03
2017-08-22T05:26:46.960Z,7.80
2017-08-22T05:29:15.265Z,7.23
2017-08-22T05:31:43.590Z,8.03
2017-08-22T05:34:11.991Z,6.90
2017-08-22T05:36:41.411Z,7.23
2017-08-22T05:39:09.765Z,7.87
2017-08-22T05:41:38.099Z,6.90
2017-08-22T05:44:06.378Z,7.67
2017-08-22T05:46:34.666Z,7.50
2017-08-22T05:49:04.139Z,8.13
2017-08-22T05:51:32.425Z,6.93
2017-08-22T05:54:00.699Z,6.83
2017-08-22T05:56:29.019Z,8.00
2017-08-22T05:58:57.296Z,7.80
2017-08-22T06:01:26.341Z,8.07
2017-08-22T06:03:54.680Z,7.70
2017-08-22T06:06:22.955Z,7.30
2017-08-22T06:08:51.278Z,8.67
2017-08-22T06:11:20.770Z,7.00
2017-08-22T06:13:49.100Z,8.47
2017-08-22T06:16:18.762Z,6.73
2017-08-22T06:18:47.379Z,8.27
2017-08-22T06:21:15.692Z,6.97
2017-08-22T06:23:43.976Z,6.73
2017-08-22T06:26:12.919Z,8.10
2017-08-22T06:28:41.997Z,8.27
2017-08-22T06:31:10.270Z,8.13
2017-08-22T06:33:38.625Z,9.10
2017-08-22T06:36:06.907Z,8.43
2017-08-22T06:38:36.734Z,8.40
2017-08-22T06:41:05.071Z,7.93
2017-08-22T06:43:33.359Z,8.10
2017-08-22T06:46:02.403Z,8.10
2017-08-22T06:48:30.746Z,7.50
2017-08-22T06:50:59.028Z,7.43
2017-08-22T06:53:28.812Z,7.17
2017-08-22T06:55:57.160Z,9.80
2017-08-22T06:58:25.447Z,10.07
2017-08-22T07:00:53.726Z,7.87
2017-08-22T07:03:22.071Z,8.37
2017-08-22T07:05:51.499Z,8.43
2017-08-22T07:08:19.818Z,8.47
2017-08-22T07:10:49.890Z,7.97
2017-08-22T07:13:18.062Z,9.10
2017-08-22T07:15:46.361Z,7.73
2017-08-22T07:18:14.736Z,8.00
2017-08-22T07:20:44.400Z,9.40
2017-08-22T07:23:12.967Z,9.20
2017-08-22T07:25:41.322Z,11.50
2017-08-22T07:28:10.379Z,10.10
2017-08-22T07:30:38.699Z,10.90
2017-08-22T07:33:08.783Z,8.60
2017-08-22T07:35:37.071Z,9.33
2017-08-22T07:38:05.351Z,9.30
2017-08-22T07:40:34.831Z,8.20
2017-08-22T07:43:03.879Z,8.40
2017-08-22T07:45:32.922Z,8.50
2017-08-22T07:48:02.047Z,7.63
2017-08-22T07:50:31.459Z,10.43
2017-08-22T07:52:59.751Z,8.97
2017-08-22T07:55:28.099Z,8.87
2017-08-22T07:57:56.378Z,9.60
2017-08-22T08:00:24.658Z,9.27
2017-08-22T08:02:53.743Z,9.70
2017-08-22T08:05:22.795Z,9.10
2017-08-22T08:07:51.098Z,7.70
2017-08-22T08:10:19.461Z,8.00
2017-08-22T08:12:48.536Z,8.27
2017-08-22T08:15:16.838Z,7.50
2017-08-22T08:17:45.518Z,7.80
2017-08-22T08:20:14.969Z,6.83
2017-08-22T08:22:43.268Z,6.30
2017-08-22T08:25:11.610Z,5.90
2017-08-22T08:27:39.902Z,6.40
2017-08-22T08:30:11.249Z,4.80
2017-08-22T08:32:39.544Z,5.20
2017-08-22T08:35:07.815Z,6.17
2017-08-22T08:37:36.166Z,5.20
2017-08-22T08:40:05.797Z,4.90
2017-08-22T08:42:34.347Z,4.80
2017-08-22T08:45:04.072Z,4.57
2017-08-22T08:47:32.987Z,4.70
2017-08-22T08:50:02.031Z,5.67
2017-08-22T08:52:30.359Z,4.20
2017-08-22T08:54:59.892Z,4.13
2017-08-22T08:57:28.563Z,4.20
2017-08-22T08:59:56.919Z,4.90
2017-08-22T09:02:25.199Z,4.33
2017-08-22T09:04:54.607Z,4.10
2017-08-22T09:07:23.715Z,4.43
2017-08-22T09:09:52.003Z,3.90
2017-08-22T09:12:21.060Z,4.20
2017-08-22T09:14:50.182Z,4.03
2017-08-22T09:17:18.489Z,3.20
2017-08-22T09:19:47.953Z,5.17
2017-08-22T09:22:16.330Z,4.37
2017-08-22T09:24:44.652Z,3.70
2017-08-22T09:27:13.774Z,3.73
2017-08-22T09:29:42.923Z,4.80
2017-08-22T09:32:12.006Z,3.90
2017-08-22T09:34:40.299Z,3.93
2017-08-22T09:37:10.222Z,3.40
2017-08-22T09:39:39.858Z,3.83
2017-08-22T09:42:08.403Z,3.53
2017-08-22T09:44:36.747Z,3.53
2017-08-22T09:47:05.023Z,4.07
2017-08-22T09:49:33.300Z,3.80
2017-08-22T09:52:01.756Z,3.37
2017-08-22T09:54:30.031Z,3.50
2017-08-22T09:56:59.448Z,3.73
2017-08-22T09:59:27.798Z,3.53
2017-08-22T10:01:56.071Z,4.80
2017-08-22T10:04:24.344Z,5.23
2017-08-22T10:06:54.367Z,3.90
2017-08-22T10:09:23.416Z,4.50
2017-08-22T10:11:51.711Z,3.97
2017-08-22T10:14:21.471Z,4.73
2017-08-22T10:16:50.050Z,3.97
2017-08-22T10:19:18.342Z,3.50
2017-08-22T10:21:46.755Z,4.83
2017-08-22T10:24:16.193Z,3.90
2017-08-22T10:26:46.615Z,4.70
2017-08-22T10:29:15.308Z,4.23
2017-08-22T10:31:44.738Z,4.17
2017-08-22T10:34:13.063Z,5.13
2017-08-22T10:36:42.900Z,4.30
2017-08-22T10:39:11.175Z,4.00
2017-08-22T10:41:39.483Z,4.50
2017-08-22T10:44:07.799Z,4.23
2017-08-22T10:46:36.072Z,4.17
2017-08-22T10:49:04.380Z,4.10
2017-08-22T10:51:33.460Z,3.50
2017-08-22T10:54:02.514Z,4.47
2017-08-22T10:56:31.613Z,4.17
2017-08-22T10:58:59.918Z,4.53
2017-08-22T11:01:28.191Z,3.90
2017-08-22T11:03:56.515Z,3.97
2017-08-22T11:06:24.829Z,4.50
2017-08-22T11:08:54.240Z,4.43
2017-08-22T11:11:22.542Z,4.20
2017-08-22T11:13:51.253Z,4.50
2017-08-22T11:16:19.531Z,4.67
2017-08-22T11:18:48.983Z,4.30
2017-08-22T11:21:17.320Z,3.90
2017-08-22T11:23:45.624Z,4.00
2017-08-22T11:26:13.960Z,3.77
2017-08-22T11:28:43.630Z,4.67
2017-08-22T11:31:12.200Z,3.30
2017-08-22T11:33:41.266Z,3.90
2017-08-22T11:36:09.594Z,4.40
2017-08-22T11:38:39.214Z,3.40
2017-08-22T11:41:07.412Z,3.17
2017-08-22T11:43:35.728Z,3.77
2017-08-22T11:46:05.364Z,3.00
2017-08-22T11:48:33.947Z,3.10
2017-08-22T11:51:02.259Z,3.50
2017-08-22T11:53:30.535Z,4.27
2017-08-22T11:55:58.839Z,3.67
2017-08-22T11:58:28.654Z,4.27
2017-08-22T12:00:56.932Z,3.60
2017-08-22T12:03:25.635Z,4.77
2017-08-22T12:05:55.467Z,4.17
2017-08-22T12:08:23.769Z,3.20
2017-08-22T12:10:52.102Z,3.87
2017-08-22T12:13:21.990Z,5.10
2017-08-22T12:15:51.415Z,4.10
2017-08-22T12:18:19.744Z,4.70
2017-08-22T12:20:49.601Z,3.83
2017-08-22T12:23:17.922Z,5.07
2017-08-22T12:25:46.218Z,3.30
2017-08-22T12:28:14.592Z,3.90
2017-08-22T12:30:44.110Z,3.57
2017-08-22T12:33:12.402Z,4.20
2017-08-22T12:35:40.730Z,4.33
2017-08-22T12:38:10.236Z,4.50
2017-08-22T12:40:39.294Z,4.50
2017-08-22T12:43:07.640Z,4.20
2017-08-22T12:45:37.052Z,4.00
2017-08-22T12:48:05.322Z,4.30
2017-08-22T12:50:33.667Z,3.23
2017-08-22T12:53:01.948Z,4.17
2017-08-22T12:55:31.011Z,3.73
2017-08-22T12:57:59.335Z,3.60
2017-08-22T13:00:28.966Z,3.70
2017-08-22T13:02:57.515Z,4.37
2017-08-22T13:05:25.848Z,3.40
2017-08-22T13:07:54.126Z,3.83
2017-08-22T13:10:23.783Z,4.30
2017-08-22T13:12:51.998Z,4.27
2017-08-22T13:15:20.291Z,4.20
2017-08-22T13:17:50.116Z,3.60
2017-08-22T13:20:18.507Z,4.20
2017-08-22T13:22:46.810Z,3.60
2017-08-22T13:25:15.135Z,3.50
2017-08-22T13:27:43.512Z,4.27
2017-08-22T13:30:13.200Z,4.70
2017-08-22T13:32:41.359Z,3.87
2017-08-22T13:35:09.694Z,4.00
2017-08-22T13:37:38.742Z,3.77
2017-08-22T13:40:08.408Z,3.50
2017-08-22T13:42:37.289Z,3.90
2017-08-22T13:45:05.566Z,5.70
2017-08-22T13:47:33.843Z,4.63
2017-08-22T13:50:03.671Z,3.50
2017-08-22T13:52:33.454Z,4.30
2017-08-22T13:55:01.737Z,4.43
2017-08-22T13:57:30.062Z,4.43
2017-08-22T13:59:58.339Z,3.73
2017-08-22T14:02:26.616Z,4.70
2017-08-22T14:04:54.934Z,3.90
2017-08-22T14:07:23.211Z,3.67
2017-08-22T14:09:52.995Z,4.33
2017-08-22T14:12:21.327Z,4.57
2017-08-22T14:14:49.603Z,4.87
2017-08-22T14:17:18.647Z,4.57
2017-08-22T14:19:48.332Z,4.50
2017-08-22T14:22:17.994Z,4.53
2017-08-22T14:24:47.038Z,5.10
2017-08-22T14:27:16.724Z,5.43
2017-08-22T14:29:45.288Z,5.57
2017-08-22T14:32:14.087Z,4.13
2017-08-22T14:34:43.829Z,4.43
2017-08-22T14:37:11.985Z,4.40
2017-08-22T14:39:40.275Z,4.43
2017-08-22T14:42:08.800Z,4.67
2017-08-22T14:44:38.222Z,4.10
2017-08-22T14:47:06.503Z,4.53
2017-08-22T14:49:34.860Z,4.40
2017-08-22T14:52:04.474Z,3.93
2017-08-22T14:56:20.898Z,3.80
2017-08-22T14:58:49.527Z,3.87
2017-08-22T15:01:17.812Z,5.33
2017-08-22T15:03:46.928Z,13.60
2017-08-22T15:06:15.264Z,9.13
2017-08-22T15:08:43.652Z,4.20
2017-08-22T15:11:13.391Z,4.57
2017-08-22T15:13:41.682Z,3.67
2017-08-22T15:16:09.954Z,4.67
2017-08-22T15:18:38.327Z,3.97
2017-08-22T15:21:07.803Z,4.20
2017-08-22T15:23:37.414Z,3.63
2017-08-22T15:26:06.090Z,4.17
2017-08-22T15:28:34.354Z,4.20
2017-08-22T15:31:03.100Z,3.83
2017-08-22T15:33:31.542Z,4.20
2017-08-22T15:36:00.981Z,5.13
2017-08-22T15:38:29.339Z,5.07
2017-08-22T15:40:59.422Z,4.30
2017-08-22T15:43:27.623Z,4.70
2017-08-22T15:45:56.681Z,4.17
2017-08-22T15:48:25.023Z,3.50
2017-08-22T15:50:53.300Z,3.93
2017-08-22T15:53:21.575Z,4.40
2017-08-22T15:55:49.898Z,5.17
2017-08-22T15:58:19.518Z,4.30
2017-08-22T16:00:47.682Z,4.40
2017-08-22T16:03:16.027Z,4.67
2017-08-22T16:05:44.318Z,5.03
2017-08-22T16:08:12.595Z,4.43
2017-08-22T16:10:42.283Z,4.20
2017-08-22T16:13:10.436Z,4.57
2017-08-22T16:15:38.715Z,3.23
2017-08-22T16:18:07.056Z,4.10
2017-08-22T16:20:35.322Z,4.20
2017-08-22T16:23:04.949Z,3.60
2017-08-22T16:25:33.920Z,3.77
2017-08-22T16:28:03.558Z,4.80
2017-08-22T16:30:32.859Z,4.10
2017-08-22T16:33:01.199Z,3.80
2017-08-22T16:35:29.473Z,4.20
2017-08-22T16:37:57.750Z,3.87
2017-08-22T16:40:26.119Z,4.67
2017-08-22T16:42:55.167Z,4.50
2017-08-22T16:45:23.732Z,4.30
2017-08-22T16:47:52.128Z,4.03
2017-08-22T16:50:20.425Z,3.70
2017-08-22T16:52:50.046Z,4.60
2017-08-22T16:55:19.591Z,4.57
2017-08-22T16:57:48.529Z,4.57
2017-08-22T17:00:16.818Z,4.17
2017-08-22T17:02:45.173Z,4.87
2017-08-22T17:05:14.239Z,4.10
2017-08-22T17:07:43.901Z,4.03
2017-08-22T17:10:12.522Z,3.73
2017-08-22T17:12:40.794Z,4.67
2017-08-22T17:15:09.066Z,4.20
2017-08-22T17:17:38.926Z,4.30
2017-08-22T17:20:08.545Z,4.50
2017-08-22T17:22:37.091Z,5.30
2017-08-22T17:25:05.438Z,11.30
2017-08-22T17:27:33.714Z,4.83
2017-08-22T17:30:01.992Z,4.80
2017-08-22T17:32:30.323Z,4.47
2017-08-22T17:35:00.108Z,4.73
2017-08-22T17:37:28.383Z,4.60
2017-08-22T17:39:56.706Z,5.10
2017-08-22T17:42:26.334Z,4.60
2017-08-22T17:44:54.878Z,5.30
2017-08-22T17:47:23.194Z,4.83
2017-08-22T17:49:52.229Z,4.40
2017-08-22T17:52:20.502Z,4.90
2017-08-22T17:54:48.838Z,5.20
2017-08-22T17:57:17.127Z,5.53
2017-08-22T17:59:46.925Z,4.33
2017-08-22T18:02:15.286Z,5.23
2017-08-22T18:04:43.569Z,5.00
2017-08-22T18:07:11.839Z,5.40
2017-08-22T18:09:40.167Z,5.40
2017-08-22T18:12:09.584Z,5.03
2017-08-22T18:14:37.860Z,4.83
2017-08-22T18:17:06.195Z,5.40
2017-08-22T18:19:34.471Z,5.63
2017-08-22T18:22:02.755Z,4.77
2017-08-22T18:24:32.467Z,5.73
2017-08-22T18:27:01.028Z,5.30
2017-08-22T18:29:30.064Z,5.47
2017-08-22T18:31:58.380Z,4.97
2017-08-22T18:34:28.172Z,6.00
2017-08-22T18:36:56.442Z,5.03
2017-08-22T18:39:24.767Z,5.90
2017-08-22T18:41:53.042Z,6.00
2017-08-22T18:44:21.314Z,5.67
2017-08-22T18:46:49.655Z,5.70
2017-08-22T18:49:19.283Z,5.77
2017-08-22T18:51:47.435Z,6.10
2017-08-22T18:54:15.768Z,5.40
2017-08-22T18:56:44.051Z,6.43
2017-08-22T18:59:12.335Z,6.37
2017-08-22T19:01:42.207Z,6.00
2017-08-22T19:04:10.483Z,6.10
2017-08-22T19:06:39.523Z,5.80
2017-08-22T19:09:09.004Z,5.60
2017-08-22T19:11:38.047Z,5.13
2017-08-22T19:14:06.322Z,5.40
2017-08-22T19:16:34.647Z,5.90
2017-08-22T19:19:04.435Z,6.40
2017-08-22T19:21:32.720Z,5.60
2017-08-22T19:24:01.076Z,5.47
2017-08-22T19:26:30.706Z,6.53
2017-08-22T19:28:58.859Z,6.43
2017-08-22T19:31:27.946Z,5.43
2017-08-22T19:33:56.987Z,5.40
2017-08-22T19:36:25.259Z,5.03
2017-08-22T19:38:53.595Z,6.10
2017-08-22T19:41:21.872Z,5.97
2017-08-22T19:43:50.158Z,6.40
2017-08-22T19:46:18.492Z,6.80
2017-08-22T19:48:47.567Z,6.33
2017-08-22T19:51:16.647Z,6.23
2017-08-22T19:53:46.343Z,6.70
2017-08-22T19:56:16.035Z,7.20
2017-08-22T19:58:44.753Z,7.17
2017-08-22T20:01:14.338Z,7.13
2017-08-22T20:03:42.642Z,7.50
2017-08-22T20:06:10.924Z,7.60
2017-08-22T20:08:40.756Z,8.00
2017-08-22T20:11:09.036Z,7.60
2017-08-22T20:13:37.307Z,7.33
2017-08-22T20:16:05.631Z,8.43
2017-08-22T20:18:33.906Z,6.53
2017-08-22T20:21:02.198Z,7.87
2017-08-22T20:23:31.893Z,8.37
2017-08-22T20:26:00.047Z,7.60
2017-08-22T20:28:28.323Z,7.67
2017-08-22T20:30:56.637Z,6.80
2017-08-22T20:33:25.685Z,7.73
2017-08-22T20:35:55.319Z,7.53
2017-08-22T20:38:23.929Z,7.80
2017-08-22T20:40:52.236Z,8.80
2017-08-22T20:43:20.511Z,21.40
2017-08-22T20:45:50.201Z,17.07
2017-08-22T20:48:18.367Z,8.50
2017-08-22T20:50:46.654Z,6.73
2017-08-22T20:53:15.380Z,6.83
2017-08-22T20:55:44.812Z,6.93
2017-08-22T20:58:13.110Z,7.23
2017-08-22T21:00:41.451Z,7.40
2017-08-22T21:03:09.730Z,7.63
2017-08-22T21:05:38.021Z,7.40
2017-08-22T21:08:07.850Z,7.80
2017-08-22T21:10:36.124Z,7.00
2017-08-22T21:13:04.399Z,8.10
2017-08-22T21:15:33.498Z,7.20
2017-08-22T21:18:01.783Z,7.60
2017-08-22T21:20:31.412Z,6.97
2017-08-22T21:23:00.016Z,7.80
2017-08-22T21:25:29.643Z,7.90
2017-08-22T21:27:58.559Z,7.00
2017-08-22T21:30:26.890Z,9.27
2017-08-22T21:32:55.171Z,7.20
2017-08-22T21:35:23.456Z,7.63
2017-08-22T21:37:55.344Z,7.77
2017-08-22T21:40:24.754Z,6.23
2017-08-22T21:42:53.027Z,6.87
2017-08-22T21:45:21.382Z,8.13
2017-08-22T21:47:49.659Z,7.33
2017-08-22T21:50:17.950Z,6.97
2017-08-22T21:52:47.646Z,7.77
2017-08-22T21:55:16.215Z,6.50
2017-08-22T21:57:45.859Z,6.53
2017-08-22T22:00:15.613Z,7.60
2017-08-22T22:02:43.906Z,6.33
2017-08-22T22:05:13.562Z,7.53
2017-08-22T22:07:41.764Z,6.43
2017-08-22T22:10:10.039Z,6.73
2017-08-22T22:12:38.312Z,7.20
2017-08-22T22:15:06.639Z,7.30
2017-08-22T22:17:34.915Z,7.57
2017-08-22T22:20:03.207Z,7.93
2017-08-22T22:22:31.893Z,7.50
2017-08-22T22:25:00.930Z,7.60
2017-08-22T22:27:29.208Z,7.57
2017-08-22T22:29:57.532Z,9.10
2017-08-22T22:32:25.800Z,7.70
2017-08-22T22:34:54.078Z,7.67
2017-08-22T22:37:23.491Z,8.87
2017-08-22T22:39:53.275Z,8.30
2017-08-22T22:42:21.551Z,7.50
2017-08-22T22:44:49.938Z,8.03
2017-08-22T22:47:19.525Z,7.80
2017-08-22T22:49:47.694Z,8.70
2017-08-22T22:52:16.023Z,8.40
2017-08-22T22:54:44.319Z,7.87
2017-08-22T22:57:12.627Z,8.60
2017-08-22T22:59:40.975Z,8.50
2017-08-22T23:02:09.259Z,10.30
2017-08-22T23:04:37.535Z,8.00
2017-08-22T23:07:06.999Z,8.30
2017-08-22T23:09:36.625Z,8.30
2017-08-22T23:12:05.539Z,8.60
2017-08-22T23:14:33.871Z,8.53
2017-08-22T23:17:02.927Z,8.70
2017-08-22T23:19:32.567Z,9.20
2017-08-22T23:22:01.179Z,9.40
2017-08-22T23:24:29.458Z,9.47
2017-08-22T23:26:57.738Z,9.10
2017-08-22T23:29:26.095Z,9.20
2017-08-22T23:31:55.517Z,9.53
2017-08-22T23:34:23.792Z,9.47
2017-08-22T23:36:52.139Z,9.53
2017-08-22T23:39:21.762Z,9.80
2017-08-22T23:41:50.315Z,10.50
2017-08-22T23:44:18.667Z,9.80
2017-08-22T23:46:47.729Z,7.93
2017-08-22T23:49:16.775Z,9.33
2017-08-22T23:51:45.531Z,8.73
2017-08-22T23:54:15.340Z,8.60
2017-08-22T23:56:43.631Z,8.97
2017-08-22T23:59:13.375Z,11.60
